sensor_id;sensor_type;location;lat;lon;timestamp;pressure;altitude;pressure_sealevel;temperature;humidity
73383;BME280;61600;48.126;11.542;2023-12-20T00:00:14;95616.66;;;8.79;45.58
73383;BME280;61600;48.126;11.542;2023-12-20T00:02:40;95637.25;;;8.90;45.46
73383;BME280;61600;48.126;11.542;2023-12-20T00:05:10;95625.63;;;8.79;45.87
73383;BME280;61600;48.126;11.542;2023-12-20T00:07:36;95609.88;;;8.86;45.61
73383;BME280;61600;48.126;11.542;2023-12-20T00:10:01;95621.13;;;9.19;45.56
73383;BME280;61600;48.126;11.542;2023-12-20T00:12:28;95606.88;;;8.93;45.86
73383;BME280;61600;48.126;11.542;2023-12-20T00:14:53;95606.03;;;8.97;45.76
73383;BME280;61600;48.126;11.542;2023-12-20T00:17:20;95611.19;;;8.99;46.37
73383;BME280;61600;48.126;11.542;2023-12-20T00:19:46;95610.88;;;9.06;46.14
73383;BME280;61600;48.126;11.542;2023-12-20T00:22:12;95592.44;;;9.02;46.23
73383;BME280;61600;48.126;11.542;2023-12-20T00:24:37;95601.94;;;9.05;46.36
73383;BME280;61600;48.126;11.542;2023-12-20T00:27:03;95607.81;;;9.27;45.65
73383;BME280;61600;48.126;11.542;2023-12-20T00:29:29;95604.06;;;9.13;45.73
73383;BME280;61600;48.126;11.542;2023-12-20T00:31:54;95588.91;;;9.07;45.76
73383;BME280;61600;48.126;11.542;2023-12-20T00:34:20;95611.13;;;9.14;45.63
73383;BME280;61600;48.126;11.542;2023-12-20T00:36:46;95599.25;;;8.95;45.80
73383;BME280;61600;48.126;11.542;2023-12-20T00:39:12;95589.47;;;9.04;45.00
73383;BME280;61600;48.126;11.542;2023-12-20T00:41:38;95584.28;;;9.13;44.79
73383;BME280;61600;48.126;11.542;2023-12-20T00:44:05;95580.22;;;9.10;44.44
73383;BME280;61600;48.126;11.542;2023-12-20T00:46:31;95580.47;;;9.09;44.27
73383;BME280;61600;48.126;11.542;2023-12-20T00:48:56;95565.59;;;9.06;43.80
73383;BME280;61600;48.126;11.542;2023-12-20T00:51:22;95570.75;;;9.08;43.87
73383;BME280;61600;48.126;11.542;2023-12-20T00:53:50;95587.28;;;9.11;43.82
73383;BME280;61600;48.126;11.542;2023-12-20T00:56:16;95583.97;;;9.19;43.65
73383;BME280;61600;48.126;11.542;2023-12-20T00:58:43;95569.94;;;9.07;43.53
73383;BME280;61600;48.126;11.542;2023-12-20T01:01:08;95558.47;;;9.20;43.24
73383;BME280;61600;48.126;11.542;2023-12-20T01:03:34;95567.97;;;9.18;43.01
73383;BME280;61600;48.126;11.542;2023-12-20T01:06:00;95558.47;;;9.20;42.96
73383;BME280;61600;48.126;11.542;2023-12-20T01:08:26;95556.50;;;9.31;43.21
73383;BME280;61600;48.126;11.542;2023-12-20T01:10:51;95547.59;;;9.25;43.54
73383;BME280;61600;48.126;11.542;2023-12-20T01:13:17;95549.06;;;9.57;42.87
73383;BME280;61600;48.126;11.542;2023-12-20T01:15:43;95545.34;;;9.42;43.29
73383;BME280;61600;48.126;11.542;2023-12-20T01:18:09;95552.22;;;9.25;43.76
73383;BME280;61600;48.126;11.542;2023-12-20T01:20:35;95544.63;;;9.22;43.90
73383;BME280;61600;48.126;11.542;2023-12-20T01:23:01;95552.69;;;9.37;43.85
73383;BME280;61600;48.126;11.542;2023-12-20T01:25:28;95537.06;;;9.09;44.47
73383;BME280;61600;48.126;11.542;2023-12-20T01:27:53;95542.22;;;9.10;44.71
73383;BME280;61600;48.126;11.542;2023-12-20T01:30:19;95532.03;;;9.36;44.36
73383;BME280;61600;48.126;11.542;2023-12-20T01:32:50;95512.28;;;9.30;44.46
73383;BME280;61600;48.126;11.542;2023-12-20T01:35:36;95522.16;;;9.06;45.18
73383;BME280;61600;48.126;11.542;2023-12-20T01:38:02;95521.50;;;9.29;45.05
73383;BME280;61600;48.126;11.542;2023-12-20T01:40:28;95532.91;;;9.26;45.43
73383;BME280;61600;48.126;11.542;2023-12-20T01:43:02;95520.28;;;9.07;45.40
73383;BME280;61600;48.126;11.542;2023-12-20T01:45:28;95531.59;;;9.24;45.55
73383;BME280;61600;48.126;11.542;2023-12-20T01:47:56;95518.94;;;9.04;45.72
73383;BME280;61600;48.126;11.542;2023-12-20T01:50:23;95514.22;;;9.20;45.39
73383;BME280;61600;48.126;11.542;2023-12-20T01:52:49;95501.97;;;9.27;45.38
73383;BME280;61600;48.126;11.542;2023-12-20T01:55:19;95493.28;;;9.30;45.26
73383;BME280;61600;48.126;11.542;2023-12-20T01:57:45;95501.16;;;9.32;44.95
73383;BME280;61600;48.126;11.542;2023-12-20T02:00:13;95486.00;;;9.21;45.30
73383;BME280;61600;48.126;11.542;2023-12-20T02:02:40;95491.00;;;9.47;44.84
73383;BME280;61600;48.126;11.542;2023-12-20T02:05:08;95485.75;;;9.17;45.18
73383;BME280;61600;48.126;11.542;2023-12-20T02:07:34;95485.63;;;9.37;45.14
73383;BME280;61600;48.126;11.542;2023-12-20T02:10:01;95473.06;;;9.46;44.69
73383;BME280;61600;48.126;11.542;2023-12-20T02:12:28;95465.78;;;9.42;44.86
73383;BME280;61600;48.126;11.542;2023-12-20T02:14:53;95464.13;;;9.46;45.01
73383;BME280;61600;48.126;11.542;2023-12-20T02:17:20;95454.25;;;9.21;45.27
73383;BME280;61600;48.126;11.542;2023-12-20T02:19:46;95460.38;;;9.42;45.18
73383;BME280;61600;48.126;11.542;2023-12-20T02:22:13;95465.00;;;9.36;45.58
73383;BME280;61600;48.126;11.542;2023-12-20T02:24:40;95464.09;;;9.51;45.30
73383;BME280;61600;48.126;11.542;2023-12-20T02:27:06;95460.28;;;9.52;45.41
73383;BME280;61600;48.126;11.542;2023-12-20T02:29:33;95466.72;;;9.61;45.57
73383;BME280;61600;48.126;11.542;2023-12-20T02:31:58;95469.47;;;9.17;46.66
73383;BME280;61600;48.126;11.542;2023-12-20T02:34:24;95457.31;;;9.48;46.42
73383;BME280;61600;48.126;11.542;2023-12-20T02:36:50;95456.44;;;9.58;46.12
73383;BME280;61600;48.126;11.542;2023-12-20T02:39:16;95466.28;;;9.49;46.73
73383;BME280;61600;48.126;11.542;2023-12-20T02:41:42;95438.22;;;9.64;46.45
73383;BME280;61600;48.126;11.542;2023-12-20T02:44:08;95427.13;;;9.55;46.76
73383;BME280;61600;48.126;11.542;2023-12-20T02:46:33;95427.88;;;9.61;46.74
73383;BME280;61600;48.126;11.542;2023-12-20T02:48:59;95440.13;;;9.58;47.04
73383;BME280;61600;48.126;11.542;2023-12-20T02:51:25;95439.09;;;9.54;47.17
73383;BME280;61600;48.126;11.542;2023-12-20T02:53:51;95433.41;;;9.50;47.34
73383;BME280;61600;48.126;11.542;2023-12-20T02:56:17;95440.19;;;9.53;47.56
73383;BME280;61600;48.126;11.542;2023-12-20T02:58:43;95418.41;;;9.58;47.36
73383;BME280;61600;48.126;11.542;2023-12-20T03:01:08;95435.50;;;9.64;47.39
73383;BME280;61600;48.126;11.542;2023-12-20T03:03:34;95430.31;;;9.67;47.54
73383;BME280;61600;48.126;11.542;2023-12-20T03:06:00;95448.94;;;9.45;48.50
73383;BME280;61600;48.126;11.542;2023-12-20T03:08:30;95432.66;;;9.40;48.44
73383;BME280;61600;48.126;11.542;2023-12-20T03:10:58;95445.56;;;9.58;48.76
73383;BME280;61600;48.126;11.542;2023-12-20T03:13:24;95424.00;;;9.38;49.09
73383;BME280;61600;48.126;11.542;2023-12-20T03:15:50;95428.72;;;9.22;49.94
73383;BME280;61600;48.126;11.542;2023-12-20T03:18:16;95440.63;;;9.65;49.30
73383;BME280;61600;48.126;11.542;2023-12-20T03:20:44;95434.78;;;9.48;50.00
73383;BME280;61600;48.126;11.542;2023-12-20T03:23:12;95441.06;;;9.43;50.70
73383;BME280;61600;48.126;11.542;2023-12-20T03:25:37;95444.09;;;9.37;51.12
73383;BME280;61600;48.126;11.542;2023-12-20T03:28:03;95436.34;;;9.59;51.08
73383;BME280;61600;48.126;11.542;2023-12-20T03:30:29;95440.53;;;9.41;51.81
73383;BME280;61600;48.126;11.542;2023-12-20T03:32:55;95452.16;;;9.47;51.97
73383;BME280;61600;48.126;11.542;2023-12-20T03:35:21;95443.22;;;9.46;52.04
73383;BME280;61600;48.126;11.542;2023-12-20T03:37:46;95454.88;;;9.47;52.41
73383;BME280;61600;48.126;11.542;2023-12-20T03:40:12;95449.41;;;9.13;53.76
73383;BME280;61600;48.126;11.542;2023-12-20T03:42:38;95477.06;;;9.15;54.45
73383;BME280;61600;48.126;11.542;2023-12-20T03:45:04;95458.31;;;9.19;54.39
73383;BME280;61600;48.126;11.542;2023-12-20T03:47:30;95463.56;;;9.10;55.05
73383;BME280;61600;48.126;11.542;2023-12-20T03:49:55;95461.22;;;8.88;56.21
73383;BME280;61600;48.126;11.542;2023-12-20T03:52:22;95460.59;;;9.07;56.03
73383;BME280;61600;48.126;11.542;2023-12-20T03:54:49;95486.25;;;9.24;56.27
73383;BME280;61600;48.126;11.542;2023-12-20T03:57:16;95486.50;;;8.79;57.71
73383;BME280;61600;48.126;11.542;2023-12-20T03:59:46;95481.22;;;9.08;58.23
73383;BME280;61600;48.126;11.542;2023-12-20T04:02:12;95479.31;;;9.03;57.78
73383;BME280;61600;48.126;11.542;2023-12-20T04:04:38;95478.25;;;9.04;58.66
73383;BME280;61600;48.126;11.542;2023-12-20T04:07:04;95479.13;;;8.89;59.42
73383;BME280;61600;48.126;11.542;2023-12-20T04:09:30;95481.53;;;8.96;59.75
73383;BME280;61600;48.126;11.542;2023-12-20T04:11:56;95492.09;;;8.97;60.50
73383;BME280;61600;48.126;11.542;2023-12-20T04:14:22;95493.25;;;8.86;60.83
73383;BME280;61600;48.126;11.542;2023-12-20T04:16:50;95495.34;;;8.94;60.94
73383;BME280;61600;48.126;11.542;2023-12-20T04:19:16;95480.19;;;8.93;60.67
73383;BME280;61600;48.126;11.542;2023-12-20T04:21:42;95481.53;;;8.91;61.16
73383;BME280;61600;48.126;11.542;2023-12-20T04:24:09;95468.91;;;8.66;61.63
73383;BME280;61600;48.126;11.542;2023-12-20T04:26:35;95489.50;;;8.72;62.51
73383;BME280;61600;48.126;11.542;2023-12-20T04:29:01;95470.28;;;8.59;62.86
73383;BME280;61600;48.126;11.542;2023-12-20T04:31:27;95491.31;;;8.87;62.34
73383;BME280;61600;48.126;11.542;2023-12-20T04:33:53;95486.75;;;8.77;62.81
73383;BME280;61600;48.126;11.542;2023-12-20T04:36:18;95466.41;;;8.80;62.35
73383;BME280;61600;48.126;11.542;2023-12-20T04:38:44;95476.72;;;8.78;62.33
73383;BME280;61600;48.126;11.542;2023-12-20T04:41:10;95491.06;;;8.88;62.77
73383;BME280;61600;48.126;11.542;2023-12-20T04:43:35;95492.59;;;8.35;64.53
73383;BME280;61600;48.126;11.542;2023-12-20T04:46:02;95499.25;;;8.73;63.54
73383;BME280;61600;48.126;11.542;2023-12-20T04:48:28;95505.34;;;8.40;64.77
73383;BME280;61600;48.126;11.542;2023-12-20T04:50:54;95516.06;;;8.70;64.20
73383;BME280;61600;48.126;11.542;2023-12-20T04:53:19;95504.22;;;8.51;64.83
73383;BME280;61600;48.126;11.542;2023-12-20T04:55:45;95520.75;;;8.49;65.51
73383;BME280;61600;48.126;11.542;2023-12-20T04:58:10;95519.59;;;8.76;64.50
73383;BME280;61600;48.126;11.542;2023-12-20T05:00:36;95534.59;;;8.38;66.57
73383;BME280;61600;48.126;11.542;2023-12-20T05:03:02;95537.16;;;8.83;66.39
73383;BME280;61600;48.126;11.542;2023-12-20T05:05:27;95532.38;;;8.65;66.50
73383;BME280;61600;48.126;11.542;2023-12-20T05:07:53;95541.09;;;8.27;67.90
73383;BME280;61600;48.126;11.542;2023-12-20T05:10:19;95530.53;;;8.25;69.14
73383;BME280;61600;48.126;11.542;2023-12-20T05:12:47;95540.81;;;8.03;70.45
73383;BME280;61600;48.126;11.542;2023-12-20T05:15:13;95537.31;;;7.87;71.06
73383;BME280;61600;48.126;11.542;2023-12-20T05:17:39;95524.03;;;7.71;72.48
73383;BME280;61600;48.126;11.542;2023-12-20T05:20:05;95546.00;;;7.94;71.70
73383;BME280;61600;48.126;11.542;2023-12-20T05:22:31;95538.66;;;7.85;72.36
73383;BME280;61600;48.126;11.542;2023-12-20T05:24:57;95538.69;;;7.95;72.37
73383;BME280;61600;48.126;11.542;2023-12-20T05:27:23;95546.53;;;7.66;72.42
73383;BME280;61600;48.126;11.542;2023-12-20T05:29:48;95551.66;;;7.78;73.16
73383;BME280;61600;48.126;11.542;2023-12-20T05:32:15;95560.34;;;7.80;73.23
73383;BME280;61600;48.126;11.542;2023-12-20T05:34:41;95558.66;;;7.53;74.05
73383;BME280;61600;48.126;11.542;2023-12-20T05:37:06;95559.19;;;7.50;74.13
73383;BME280;61600;48.126;11.542;2023-12-20T05:39:32;95555.69;;;7.45;74.70
73383;BME280;61600;48.126;11.542;2023-12-20T05:41:58;95582.66;;;7.20;75.13
73383;BME280;61600;48.126;11.542;2023-12-20T05:44:24;95570.53;;;7.32;74.98
73383;BME280;61600;48.126;11.542;2023-12-20T05:46:49;95584.84;;;7.23;75.75
73383;BME280;61600;48.126;11.542;2023-12-20T05:49:15;95562.63;;;7.11;75.08
73383;BME280;61600;48.126;11.542;2023-12-20T05:51:41;95588.03;;;7.10;74.86
73383;BME280;61600;48.126;11.542;2023-12-20T05:54:09;95586.41;;;7.09;74.69
73383;BME280;61600;48.126;11.542;2023-12-20T05:56:35;95596.97;;;7.10;74.77
73383;BME280;61600;48.126;11.542;2023-12-20T05:59:00;95596.19;;;7.20;74.04
73383;BME280;61600;48.126;11.542;2023-12-20T06:01:26;95601.28;;;7.06;74.26
73383;BME280;61600;48.126;11.542;2023-12-20T06:03:52;95588.66;;;6.65;74.75
73383;BME280;61600;48.126;11.542;2023-12-20T06:06:17;95593.94;;;7.01;74.47
73383;BME280;61600;48.126;11.542;2023-12-20T06:08:46;95608.84;;;7.09;74.01
73383;BME280;61600;48.126;11.542;2023-12-20T06:11:16;95621.91;;;7.27;74.29
73383;BME280;61600;48.126;11.542;2023-12-20T06:13:42;95614.59;;;7.18;74.12
73383;BME280;61600;48.126;11.542;2023-12-20T06:16:07;95591.88;;;6.67;75.15
73383;BME280;61600;48.126;11.542;2023-12-20T06:18:36;95618.09;;;6.66;75.90
73383;BME280;61600;48.126;11.542;2023-12-20T06:21:22;95619.34;;;6.95;75.25
73383;BME280;61600;48.126;11.542;2023-12-20T06:23:49;95608.81;;;6.99;74.73
73383;BME280;61600;48.126;11.542;2023-12-20T06:26:15;95629.72;;;7.14;74.75
73383;BME280;61600;48.126;11.542;2023-12-20T06:28:45;95637.19;;;6.96;74.79
73383;BME280;61600;48.126;11.542;2023-12-20T06:31:11;95645.19;;;6.76;75.28
73383;BME280;61600;48.126;11.542;2023-12-20T06:33:37;95621.88;;;6.65;75.91
73383;BME280;61600;48.126;11.542;2023-12-20T06:36:07;95661.69;;;6.80;75.25
73383;BME280;61600;48.126;11.542;2023-12-20T06:38:33;95648.75;;;6.82;75.70
73383;BME280;61600;48.126;11.542;2023-12-20T06:41:04;95642.94;;;6.63;76.34
73383;BME280;61600;48.126;11.542;2023-12-20T06:43:30;95655.38;;;6.64;75.48
73383;BME280;61600;48.126;11.542;2023-12-20T06:46:00;95656.38;;;6.53;76.67
73383;BME280;61600;48.126;11.542;2023-12-20T06:48:26;95641.31;;;6.62;76.85
73383;BME280;61600;48.126;11.542;2023-12-20T06:50:59;95664.97;;;6.82;76.71
73383;BME280;61600;48.126;11.542;2023-12-20T06:53:26;95656.09;;;6.54;77.11
73383;BME280;61600;48.126;11.542;2023-12-20T06:55:57;95649.22;;;6.37;76.73
73383;BME280;61600;48.126;11.542;2023-12-20T06:58:43;95652.31;;;6.50;76.80
73383;BME280;61600;48.126;11.542;2023-12-20T07:01:14;95665.78;;;6.45;77.02
73383;BME280;61600;48.126;11.542;2023-12-20T07:03:43;95644.09;;;6.35;76.88
73383;BME280;61600;48.126;11.542;2023-12-20T07:06:10;95667.19;;;6.53;76.80
73383;BME280;61600;48.126;11.542;2023-12-20T07:08:40;95681.28;;;6.60;76.78
73383;BME280;61600;48.126;11.542;2023-12-20T07:11:06;95664.03;;;6.61;75.91
73383;BME280;61600;48.126;11.542;2023-12-20T07:13:34;95705.91;;;6.64;76.04
73383;BME280;61600;48.126;11.542;2023-12-20T07:16:04;95702.84;;;6.50;76.78
73383;BME280;61600;48.126;11.542;2023-12-20T07:18:34;95701.06;;;6.66;76.52
73383;BME280;61600;48.126;11.542;2023-12-20T07:21:07;95682.72;;;6.73;76.08
73383;BME280;61600;48.126;11.542;2023-12-20T07:23:41;95694.00;;;6.60;75.57
73383;BME280;61600;48.126;11.542;2023-12-20T07:26:15;95699.63;;;6.53;76.17
73383;BME280;61600;48.126;11.542;2023-12-20T07:28:54;95719.19;;;6.70;75.84
73383;BME280;61600;48.126;11.542;2023-12-20T07:31:22;95725.44;;;6.76;75.85
73383;BME280;61600;48.126;11.542;2023-12-20T07:34:05;95731.31;;;6.63;75.41
73383;BME280;61600;48.126;11.542;2023-12-20T07:36:46;95715.59;;;6.28;76.51
73383;BME280;61600;48.126;11.542;2023-12-20T07:39:13;95718.91;;;6.35;75.77
73383;BME280;61600;48.126;11.542;2023-12-20T07:41:53;95736.09;;;6.50;76.21
73383;BME280;61600;48.126;11.542;2023-12-20T07:44:20;95716.16;;;6.62;75.59
73383;BME280;61600;48.126;11.542;2023-12-20T07:46:52;95728.06;;;6.61;75.72
73383;BME280;61600;48.126;11.542;2023-12-20T07:49:31;95734.97;;;6.46;75.78
73383;BME280;61600;48.126;11.542;2023-12-20T07:51:59;95736.16;;;6.29;75.93
73383;BME280;61600;48.126;11.542;2023-12-20T07:58:07;95726.56;;;6.43;75.03
73383;BME280;61600;48.126;11.542;2023-12-20T08:00:36;95732.94;;;6.64;74.90
73383;BME280;61600;48.126;11.542;2023-12-20T08:03:03;95736.09;;;6.50;75.43
73383;BME280;61600;48.126;11.542;2023-12-20T08:05:38;95723.34;;;6.51;75.41
73383;BME280;61600;48.126;11.542;2023-12-20T08:08:12;95735.88;;;6.57;74.36
73383;BME280;61600;48.126;11.542;2023-12-20T08:14:22;95753.22;;;6.66;75.32
73383;BME280;61600;48.126;11.542;2023-12-20T08:24:12;95750.97;;;6.53;75.23
73383;BME280;61600;48.126;11.542;2023-12-20T08:26:38;95754.59;;;6.69;75.67
73383;BME280;61600;48.126;11.542;2023-12-20T08:29:09;95756.06;;;6.49;75.25
73383;BME280;61600;48.126;11.542;2023-12-20T08:31:36;95747.72;;;6.56;75.53
73383;BME280;61600;48.126;11.542;2023-12-20T08:34:03;95766.91;;;6.54;75.81
73383;BME280;61600;48.126;11.542;2023-12-20T08:36:31;95732.13;;;6.63;75.42
73383;BME280;61600;48.126;11.542;2023-12-20T08:38:57;95747.59;;;6.73;74.96
73383;BME280;61600;48.126;11.542;2023-12-20T08:41:34;95753.97;;;6.57;75.53
73383;BME280;61600;48.126;11.542;2023-12-20T08:44:08;95733.03;;;6.42;75.49
73383;BME280;61600;48.126;11.542;2023-12-20T08:46:44;95756.81;;;6.77;74.88
73383;BME280;61600;48.126;11.542;2023-12-20T08:49:16;95760.09;;;6.79;74.85
73383;BME280;61600;48.126;11.542;2023-12-20T08:51:44;95738.41;;;6.74;74.71
73383;BME280;61600;48.126;11.542;2023-12-20T08:54:12;95742.03;;;6.52;74.40
73383;BME280;61600;48.126;11.542;2023-12-20T09:00:21;95743.59;;;6.80;74.56
73383;BME280;61600;48.126;11.542;2023-12-20T09:02:54;95728.91;;;6.66;74.16
73383;BME280;61600;48.126;11.542;2023-12-20T09:05:20;95749.31;;;6.84;74.33
73383;BME280;61600;48.126;11.542;2023-12-20T09:07:55;95753.06;;;6.83;74.62
73383;BME280;61600;48.126;11.542;2023-12-20T09:10:22;95749.59;;;6.87;74.32
73383;BME280;61600;48.126;11.542;2023-12-20T09:12:58;95735.03;;;6.93;73.84
73383;BME280;61600;48.126;11.542;2023-12-20T09:15:27;95724.56;;;7.02;73.47
73383;BME280;61600;48.126;11.542;2023-12-20T09:17:57;95725.69;;;7.11;73.14
73383;BME280;61600;48.126;11.542;2023-12-20T09:20:24;95750.47;;;6.93;73.62
73383;BME280;61600;48.126;11.542;2023-12-20T09:22:50;95744.56;;;7.01;73.68
73383;BME280;61600;48.126;11.542;2023-12-20T09:25:20;95743.75;;;7.00;73.72
73383;BME280;61600;48.126;11.542;2023-12-20T09:27:49;95739.91;;;6.91;74.00
73383;BME280;61600;48.126;11.542;2023-12-20T09:30:19;95733.50;;;7.08;73.73
73383;BME280;61600;48.126;11.542;2023-12-20T09:32:45;95751.75;;;6.85;74.02
73383;BME280;61600;48.126;11.542;2023-12-20T09:35:11;95749.78;;;7.13;73.55
73383;BME280;61600;48.126;11.542;2023-12-20T09:37:37;95746.56;;;7.16;72.99
73383;BME280;61600;48.126;11.542;2023-12-20T09:40:10;95733.66;;;7.33;73.16
73383;BME280;61600;48.126;11.542;2023-12-20T09:42:48;95752.66;;;6.96;74.12
73383;BME280;61600;48.126;11.542;2023-12-20T09:45:20;95764.31;;;7.01;74.13
73383;BME280;61600;48.126;11.542;2023-12-20T09:47:50;95750.72;;;6.91;74.01
73383;BME280;61600;48.126;11.542;2023-12-20T09:50:20;95745.72;;;7.10;74.21
73383;BME280;61600;48.126;11.542;2023-12-20T09:52:51;95744.03;;;7.04;74.21
73383;BME280;61600;48.126;11.542;2023-12-20T09:55:19;95747.97;;;7.28;72.75
73383;BME280;61600;48.126;11.542;2023-12-20T09:57:49;95744.78;;;6.89;74.15
73383;BME280;61600;48.126;11.542;2023-12-20T10:00:16;95736.59;;;7.21;73.64
73383;BME280;61600;48.126;11.542;2023-12-20T10:02:50;95736.78;;;7.10;74.37
73383;BME280;61600;48.126;11.542;2023-12-20T10:05:28;95734.69;;;7.22;73.54
73383;BME280;61600;48.126;11.542;2023-12-20T10:07:58;95737.16;;;7.28;73.61
73383;BME280;61600;48.126;11.542;2023-12-20T10:10:28;95731.28;;;7.41;73.14
73383;BME280;61600;48.126;11.542;2023-12-20T10:13:10;95718.91;;;7.03;73.81
73383;BME280;61600;48.126;11.542;2023-12-20T10:15:37;95733.13;;;7.36;73.36
73383;BME280;61600;48.126;11.542;2023-12-20T10:18:04;95732.59;;;7.34;73.53
73383;BME280;61600;48.126;11.542;2023-12-20T10:20:30;95746.13;;;7.39;73.49
73383;BME280;61600;48.126;11.542;2023-12-20T10:23:01;95723.91;;;7.27;73.05
73383;BME280;61600;48.126;11.542;2023-12-20T10:25:29;95729.03;;;7.23;73.46
73383;BME280;61600;48.126;11.542;2023-12-20T10:28:17;95730.19;;;7.37;73.52
73383;BME280;61600;48.126;11.542;2023-12-20T10:30:48;95719.28;;;7.22;73.03
73383;BME280;61600;48.126;11.542;2023-12-20T10:33:28;95716.63;;;7.32;73.42
73383;BME280;61600;48.126;11.542;2023-12-20T10:35:58;95704.22;;;7.46;73.13
73383;BME280;61600;48.126;11.542;2023-12-20T10:38:25;95727.22;;;7.44;73.61
73383;BME280;61600;48.126;11.542;2023-12-20T10:40:57;95710.63;;;7.25;74.55
73383;BME280;61600;48.126;11.542;2023-12-20T10:43:29;95727.91;;;7.19;74.57
73383;BME280;61600;48.126;11.542;2023-12-20T10:45:56;95722.63;;;7.44;74.11
73383;BME280;61600;48.126;11.542;2023-12-20T10:48:28;95710.13;;;7.33;73.90
73383;BME280;61600;48.126;11.542;2023-12-20T10:51:00;95718.28;;;7.38;74.14
73383;BME280;61600;48.126;11.542;2023-12-20T10:53:30;95727.56;;;7.58;73.38
73383;BME280;61600;48.126;11.542;2023-12-20T10:56:00;95700.66;;;7.31;73.87
73383;BME280;61600;48.126;11.542;2023-12-20T10:58:29;95716.03;;;7.25;74.20
73383;BME280;61600;48.126;11.542;2023-12-20T11:01:01;95722.06;;;7.42;74.02
73383;BME280;61600;48.126;11.542;2023-12-20T11:03:48;95707.22;;;7.45;73.88
73383;BME280;61600;48.126;11.542;2023-12-20T11:14:42;95712.03;;;7.33;74.35
73383;BME280;61600;48.126;11.542;2023-12-20T11:17:12;95700.38;;;7.27;74.31
73383;BME280;61600;48.126;11.542;2023-12-20T11:22:32;95697.13;;;7.35;73.32
73383;BME280;61600;48.126;11.542;2023-12-20T11:25:14;95694.50;;;7.45;73.79
73383;BME280;61600;48.126;11.542;2023-12-20T11:27:42;95685.91;;;7.69;73.36
73383;BME280;61600;48.126;11.542;2023-12-20T11:30:09;95677.94;;;7.37;74.12
73383;BME280;61600;48.126;11.542;2023-12-20T11:32:37;95658.44;;;7.30;74.05
73383;BME280;61600;48.126;11.542;2023-12-20T11:37:41;95666.41;;;7.62;72.96
73383;BME280;61600;48.126;11.542;2023-12-20T11:40:17;95666.75;;;7.80;72.53
73383;BME280;61600;48.126;11.542;2023-12-20T11:42:45;95671.59;;;7.73;72.47
73383;BME280;61600;48.126;11.542;2023-12-20T11:53:00;95666.72;;;7.70;72.01
73383;BME280;61600;48.126;11.542;2023-12-20T11:55:26;95669.75;;;7.99;71.65
73383;BME280;61600;48.126;11.542;2023-12-20T11:57:54;95658.34;;;7.92;71.44
73383;BME280;61600;48.126;11.542;2023-12-20T12:00:20;95652.69;;;8.03;70.47
73383;BME280;61600;48.126;11.542;2023-12-20T12:02:58;95645.91;;;7.96;71.49
73383;BME280;61600;48.126;11.542;2023-12-20T12:05:25;95659.72;;;7.99;70.89
73383;BME280;61600;48.126;11.542;2023-12-20T12:07:51;95652.94;;;7.92;70.60
73383;BME280;61600;48.126;11.542;2023-12-20T12:10:18;95654.53;;;7.78;71.22
73383;BME280;61600;48.126;11.542;2023-12-20T12:12:45;95641.59;;;8.00;70.30
73383;BME280;61600;48.126;11.542;2023-12-20T12:15:11;95657.56;;;8.01;69.73
73383;BME280;61600;48.126;11.542;2023-12-20T12:17:36;95655.13;;;7.90;69.43
73383;BME280;61600;48.126;11.542;2023-12-20T12:20:05;95649.72;;;8.10;69.12
73383;BME280;61600;48.126;11.542;2023-12-20T12:23:05;95635.56;;;7.78;69.74
73383;BME280;61600;48.126;11.542;2023-12-20T12:25:36;95638.84;;;7.85;69.63
73383;BME280;61600;48.126;11.542;2023-12-20T12:28:08;95635.91;;;7.96;69.19
73383;BME280;61600;48.126;11.542;2023-12-20T12:30:34;95647.78;;;7.95;69.26
73383;BME280;61600;48.126;11.542;2023-12-20T12:33:06;95631.31;;;8.12;68.72
73383;BME280;61600;48.126;11.542;2023-12-20T12:35:34;95632.38;;;8.06;68.86
73383;BME280;61600;48.126;11.542;2023-12-20T12:38:01;95620.19;;;8.14;68.83
73383;BME280;61600;48.126;11.542;2023-12-20T12:40:34;95623.72;;;8.14;68.57
73383;BME280;61600;48.126;11.542;2023-12-20T12:43:01;95617.47;;;8.14;68.93
73383;BME280;61600;48.126;11.542;2023-12-20T12:45:31;95613.16;;;8.08;69.34
73383;BME280;61600;48.126;11.542;2023-12-20T12:47:59;95610.69;;;7.96;69.96
73383;BME280;61600;48.126;11.542;2023-12-20T12:50:25;95602.34;;;8.23;69.11
73383;BME280;61600;48.126;11.542;2023-12-20T12:53:03;95624.00;;;8.13;69.80
73383;BME280;61600;48.126;11.542;2023-12-20T12:55:46;95601.78;;;8.00;70.08
73383;BME280;61600;48.126;11.542;2023-12-20T12:58:37;95616.41;;;8.25;69.10
73383;BME280;61600;48.126;11.542;2023-12-20T13:01:04;95602.06;;;8.09;69.73
73383;BME280;61600;48.126;11.542;2023-12-20T13:03:32;95623.19;;;8.12;69.84
73383;BME280;61600;48.126;11.542;2023-12-20T13:05:58;95616.94;;;8.17;69.54
73383;BME280;61600;48.126;11.542;2023-12-20T13:08:24;95624.81;;;8.08;69.97
73383;BME280;61600;48.126;11.542;2023-12-20T13:10:49;95623.63;;;7.59;70.28
73383;BME280;61600;48.126;11.542;2023-12-20T13:13:16;95624.72;;;7.58;70.44
73383;BME280;61600;48.126;11.542;2023-12-20T13:15:42;95645.53;;;7.57;70.79
73383;BME280;61600;48.126;11.542;2023-12-20T13:18:08;95633.63;;;7.53;70.38
73383;BME280;61600;48.126;11.542;2023-12-20T13:20:34;95648.41;;;7.20;70.65
73383;BME280;61600;48.126;11.542;2023-12-20T13:23:02;95651.06;;;7.10;70.30
73383;BME280;61600;48.126;11.542;2023-12-20T13:25:29;95659.19;;;7.15;70.00
73383;BME280;61600;48.126;11.542;2023-12-20T13:28:10;95637.88;;;7.24;69.74
73383;BME280;61600;48.126;11.542;2023-12-20T13:30:42;95655.97;;;6.71;70.31
73383;BME280;61600;48.126;11.542;2023-12-20T13:33:08;95658.75;;;6.81;70.24
73383;BME280;61600;48.126;11.542;2023-12-20T13:35:34;95673.84;;;6.77;70.77
73383;BME280;61600;48.126;11.542;2023-12-20T13:38:00;95652.47;;;6.76;69.68
73383;BME280;61600;48.126;11.542;2023-12-20T13:40:27;95663.56;;;6.74;68.72
73383;BME280;61600;48.126;11.542;2023-12-20T13:42:54;95646.53;;;6.74;68.93
73383;BME280;61600;48.126;11.542;2023-12-20T13:45:20;95652.00;;;6.84;69.47